sensor_id;sensor_type;location;lat;lon;timestamp;P1;durP1;ratioP1;P2;durP2;ratioP2
42006;SDS011;27696;42.704;23.304;2022-07-29T00:00:11;12.35;;;11.13;;
42006;SDS011;27696;42.704;23.304;2022-07-29T00:02:37;13.18;;;11.48;;
42006;SDS011;27696;42.704;23.304;2022-07-29T00:05:03;11.82;;;10.77;;
42006;SDS011;27696;42.704;23.304;2022-07-29T00:07:29;11.63;;;10.40;;
42006;SDS011;27696;42.704;23.304;2022-07-29T00:09:55;11.40;;;10.30;;
42006;SDS011;27696;42.704;23.304;2022-07-29T00:12:21;14.07;;;10.05;;
42006;SDS011;27696;42.704;23.304;2022-07-29T00:14:48;11.35;;;10.23;;
42006;SDS011;27696;42.704;23.304;2022-07-29T00:17:13;11.85;;;10.68;;
42006;SDS011;27696;42.704;23.304;2022-07-29T00:19:39;11.88;;;10.68;;
42006;SDS011;27696;42.704;23.304;2022-07-29T00:22:04;12.00;;;10.90;;
42006;SDS011;27696;42.704;23.304;2022-07-29T00:24:30;10.77;;;9.68;;
42006;SDS011;27696;42.704;23.304;2022-07-29T00:26:55;11.45;;;10.35;;
42006;SDS011;27696;42.704;23.304;2022-07-29T00:29:21;11.13;;;10.23;;
42006;SDS011;27696;42.704;23.304;2022-07-29T00:31:46;11.43;;;10.23;;
42006;SDS011;27696;42.704;23.304;2022-07-29T00:34:11;10.82;;;9.82;;
42006;SDS011;27696;42.704;23.304;2022-07-29T00:36:56;12.73;;;11.60;;
42006;SDS011;27696;42.704;23.304;2022-07-29T00:39:21;12.55;;;11.55;;
42006;SDS011;27696;42.704;23.304;2022-07-29T00:41:47;13.93;;;12.65;;
42006;SDS011;27696;42.704;23.304;2022-07-29T00:44:13;14.45;;;13.02;;
42006;SDS011;27696;42.704;23.304;2022-07-29T00:46:39;14.40;;;13.10;;
42006;SDS011;27696;42.704;23.304;2022-07-29T00:49:04;14.13;;;12.88;;
42006;SDS011;27696;42.704;23.304;2022-07-29T00:51:32;15.55;;;14.15;;
42006;SDS011;27696;42.704;23.304;2022-07-29T00:53:58;15.77;;;14.38;;
42006;SDS011;27696;42.704;23.304;2022-07-29T00:56:24;14.50;;;13.02;;
42006;SDS011;27696;42.704;23.304;2022-07-29T00:58:49;14.63;;;13.27;;
42006;SDS011;27696;42.704;23.304;2022-07-29T01:01:16;15.70;;;13.43;;
42006;SDS011;27696;42.704;23.304;2022-07-29T01:03:41;16.27;;;14.68;;
42006;SDS011;27696;42.704;23.304;2022-07-29T01:06:07;15.80;;;14.07;;
42006;SDS011;27696;42.704;23.304;2022-07-29T01:08:33;15.80;;;14.27;;
42006;SDS011;27696;42.704;23.304;2022-07-29T01:10:59;15.38;;;13.88;;
42006;SDS011;27696;42.704;23.304;2022-07-29T01:13:26;14.82;;;13.35;;
42006;SDS011;27696;42.704;23.304;2022-07-29T01:15:54;14.77;;;13.38;;
42006;SDS011;27696;42.704;23.304;2022-07-29T01:18:28;15.82;;;14.32;;
42006;SDS011;27696;42.704;23.304;2022-07-29T01:23:56;15.18;;;13.57;;
42006;SDS011;27696;42.704;23.304;2022-07-29T01:26:46;15.05;;;13.55;;
42006;SDS011;27696;42.704;23.304;2022-07-29T01:31:55;15.38;;;13.77;;
42006;SDS011;27696;42.704;23.304;2022-07-29T01:37:52;16.13;;;14.52;;
42006;SDS011;27696;42.704;23.304;2022-07-29T01:40:42;18.77;;;14.02;;
42006;SDS011;27696;42.704;23.304;2022-07-29T01:43:49;15.70;;;14.15;;
42006;SDS011;27696;42.704;23.304;2022-07-29T01:46:13;16.08;;;14.68;;
42006;SDS011;27696;42.704;23.304;2022-07-29T01:48:45;16.30;;;14.63;;
42006;SDS011;27696;42.704;23.304;2022-07-29T01:53:51;17.05;;;15.13;;
42006;SDS011;27696;42.704;23.304;2022-07-29T01:56:31;27.20;;;15.90;;
42006;SDS011;27696;42.704;23.304;2022-07-29T01:58:58;17.88;;;15.93;;
42006;SDS011;27696;42.704;23.304;2022-07-29T02:01:25;20.40;;;15.88;;
42006;SDS011;27696;42.704;23.304;2022-07-29T02:03:54;19.67;;;15.18;;
42006;SDS011;27696;42.704;23.304;2022-07-29T02:06:22;20.40;;;15.30;;
42006;SDS011;27696;42.704;23.304;2022-07-29T02:08:49;16.73;;;15.07;;
42006;SDS011;27696;42.704;23.304;2022-07-29T02:11:16;16.30;;;14.60;;
42006;SDS011;27696;42.704;23.304;2022-07-29T02:13:42;17.63;;;15.40;;
42006;SDS011;27696;42.704;23.304;2022-07-29T02:16:09;18.35;;;15.30;;
42006;SDS011;27696;42.704;23.304;2022-07-29T02:18:37;16.08;;;14.43;;
42006;SDS011;27696;42.704;23.304;2022-07-29T02:21:05;15.88;;;14.35;;
42006;SDS011;27696;42.704;23.304;2022-07-29T02:23:32;15.93;;;14.27;;
42006;SDS011;27696;42.704;23.304;2022-07-29T02:26:00;16.85;;;14.77;;
42006;SDS011;27696;42.704;23.304;2022-07-29T02:28:27;16.05;;;14.43;;
42006;SDS011;27696;42.704;23.304;2022-07-29T02:30:55;15.70;;;14.20;;
42006;SDS011;27696;42.704;23.304;2022-07-29T02:33:24;16.45;;;14.35;;
42006;SDS011;27696;42.704;23.304;2022-07-29T02:35:51;15.93;;;14.32;;
42006;SDS011;27696;42.704;23.304;2022-07-29T02:38:17;23.38;;;13.88;;
42006;SDS011;27696;42.704;23.304;2022-07-29T02:43:50;15.85;;;14.45;;
42006;SDS011;27696;42.704;23.304;2022-07-29T02:46:31;22.35;;;15.52;;
42006;SDS011;27696;42.704;23.304;2022-07-29T02:49:10;16.70;;;15.02;;
42006;SDS011;27696;42.704;23.304;2022-07-29T02:51:43;16.27;;;14.57;;
42006;SDS011;27696;42.704;23.304;2022-07-29T02:54:11;18.95;;;15.60;;
42006;SDS011;27696;42.704;23.304;2022-07-29T02:56:49;18.27;;;16.55;;
42006;SDS011;27696;42.704;23.304;2022-07-29T02:59:21;18.25;;;16.40;;
42006;SDS011;27696;42.704;23.304;2022-07-29T03:01:51;18.83;;;16.88;;
42006;SDS011;27696;42.704;23.304;2022-07-29T03:04:19;19.88;;;17.77;;
42006;SDS011;27696;42.704;23.304;2022-07-29T03:06:46;19.55;;;17.65;;
42006;SDS011;27696;42.704;23.304;2022-07-29T03:09:13;22.25;;;19.85;;
42006;SDS011;27696;42.704;23.304;2022-07-29T03:11:39;22.65;;;19.98;;
42006;SDS011;27696;42.704;23.304;2022-07-29T03:14:06;21.33;;;19.42;;
42006;SDS011;27696;42.704;23.304;2022-07-29T03:16:32;21.67;;;19.35;;
42006;SDS011;27696;42.704;23.304;2022-07-29T03:19:01;20.90;;;18.55;;
42006;SDS011;27696;42.704;23.304;2022-07-29T03:21:28;19.95;;;17.50;;
42006;SDS011;27696;42.704;23.304;2022-07-29T03:23:53;23.08;;;18.30;;
42006;SDS011;27696;42.704;23.304;2022-07-29T03:26:19;18.30;;;16.50;;
42006;SDS011;27696;42.704;23.304;2022-07-29T03:28:44;18.70;;;16.70;;
42006;SDS011;27696;42.704;23.304;2022-07-29T03:31:09;20.02;;;15.80;;
42006;SDS011;27696;42.704;23.304;2022-07-29T03:33:35;17.77;;;15.98;;
42006;SDS011;27696;42.704;23.304;2022-07-29T03:36:00;17.15;;;15.40;;
42006;SDS011;27696;42.704;23.304;2022-07-29T03:38:27;17.50;;;15.80;;
42006;SDS011;27696;42.704;23.304;2022-07-29T03:40:56;18.13;;;15.38;;
42006;SDS011;27696;42.704;23.304;2022-07-29T03:43:26;16.77;;;15.23;;
42006;SDS011;27696;42.704;23.304;2022-07-29T03:45:55;19.67;;;16.13;;
42006;SDS011;27696;42.704;23.304;2022-07-29T03:48:23;19.58;;;14.95;;
42006;SDS011;27696;42.704;23.304;2022-07-29T03:50:50;16.55;;;14.85;;
42006;SDS011;27696;42.704;23.304;2022-07-29T03:53:16;18.88;;;15.52;;
42006;SDS011;27696;42.704;23.304;2022-07-29T03:55:46;22.70;;;17.30;;
42006;SDS011;27696;42.704;23.304;2022-07-29T03:58:15;20.10;;;17.30;;
42006;SDS011;27696;42.704;23.304;2022-07-29T04:00:43;19.55;;;16.15;;
42006;SDS011;27696;42.704;23.304;2022-07-29T04:03:09;24.55;;;17.60;;
42006;SDS011;27696;42.704;23.304;2022-07-29T04:05:35;19.70;;;17.55;;
42006;SDS011;27696;42.704;23.304;2022-07-29T04:08:01;18.73;;;16.77;;
42006;SDS011;27696;42.704;23.304;2022-07-29T04:10:26;18.40;;;16.52;;
42006;SDS011;27696;42.704;23.304;2022-07-29T04:12:52;23.48;;;19.98;;
42006;SDS011;27696;42.704;23.304;2022-07-29T04:15:18;19.25;;;16.67;;
42006;SDS011;27696;42.704;23.304;2022-07-29T04:17:43;27.17;;;16.08;;
42006;SDS011;27696;42.704;23.304;2022-07-29T04:20:09;22.05;;;17.45;;
42006;SDS011;27696;42.704;23.304;2022-07-29T04:22:38;17.45;;;15.38;;
42006;SDS011;27696;42.704;23.304;2022-07-29T04:25:04;23.85;;;18.20;;
42006;SDS011;27696;42.704;23.304;2022-07-29T04:27:30;18.70;;;16.75;;
42006;SDS011;27696;42.704;23.304;2022-07-29T04:29:55;21.60;;;15.77;;
42006;SDS011;27696;42.704;23.304;2022-07-29T04:32:21;19.33;;;16.67;;
42006;SDS011;27696;42.704;23.304;2022-07-29T04:34:47;17.85;;;15.98;;
42006;SDS011;27696;42.704;23.304;2022-07-29T04:37:12;18.58;;;16.63;;
42006;SDS011;27696;42.704;23.304;2022-07-29T04:39:38;17.67;;;15.65;;
42006;SDS011;27696;42.704;23.304;2022-07-29T04:42:03;17.85;;;16.10;;
42006;SDS011;27696;42.704;23.304;2022-07-29T04:44:29;18.10;;;16.20;;
42006;SDS011;27696;42.704;23.304;2022-07-29T04:46:55;15.68;;;14.02;;
42006;SDS011;27696;42.704;23.304;2022-07-29T04:49:20;17.52;;;15.63;;
42006;SDS011;27696;42.704;23.304;2022-07-29T04:51:46;20.42;;;14.48;;
42006;SDS011;27696;42.704;23.304;2022-07-29T04:54:11;18.98;;;15.00;;
42006;SDS011;27696;42.704;23.304;2022-07-29T04:56:37;20.38;;;16.05;;
42006;SDS011;27696;42.704;23.304;2022-07-29T04:59:02;17.25;;;14.63;;
42006;SDS011;27696;42.704;23.304;2022-07-29T05:01:28;18.85;;;15.10;;
42006;SDS011;27696;42.704;23.304;2022-07-29T05:03:54;14.77;;;13.25;;
42006;SDS011;27696;42.704;23.304;2022-07-29T05:06:19;14.35;;;12.88;;
42006;SDS011;27696;42.704;23.304;2022-07-29T05:08:44;14.25;;;12.85;;
42006;SDS011;27696;42.704;23.304;2022-07-29T05:11:10;15.40;;;11.68;;
42006;SDS011;27696;42.704;23.304;2022-07-29T05:13:35;13.90;;;12.15;;
42006;SDS011;27696;42.704;23.304;2022-07-29T05:16:01;16.65;;;11.70;;
42006;SDS011;27696;42.704;23.304;2022-07-29T05:18:27;14.10;;;11.52;;
42006;SDS011;27696;42.704;23.304;2022-07-29T05:20:53;17.27;;;12.00;;
42006;SDS011;27696;42.704;23.304;2022-07-29T05:23:18;16.92;;;12.23;;
42006;SDS011;27696;42.704;23.304;2022-07-29T05:25:44;12.75;;;10.30;;
42006;SDS011;27696;42.704;23.304;2022-07-29T05:28:10;18.27;;;9.73;;
42006;SDS011;27696;42.704;23.304;2022-07-29T05:30:36;18.25;;;9.48;;
42006;SDS011;27696;42.704;23.304;2022-07-29T05:33:01;10.40;;;9.35;;
42006;SDS011;27696;42.704;23.304;2022-07-29T05:35:26;11.75;;;8.98;;
42006;SDS011;27696;42.704;23.304;2022-07-29T05:37:52;16.02;;;8.75;;
42006;SDS011;27696;42.704;23.304;2022-07-29T05:40:17;16.05;;;8.65;;
42006;SDS011;27696;42.704;23.304;2022-07-29T05:42:43;9.65;;;8.23;;
42006;SDS011;27696;42.704;23.304;2022-07-29T05:45:08;14.02;;;8.68;;
42006;SDS011;27696;42.704;23.304;2022-07-29T05:47:34;16.63;;;8.25;;
42006;SDS011;27696;42.704;23.304;2022-07-29T05:50:00;10.52;;;7.90;;
42006;SDS011;27696;42.704;23.304;2022-07-29T05:52:25;12.82;;;8.68;;
42006;SDS011;27696;42.704;23.304;2022-07-29T05:54:51;12.35;;;8.55;;
42006;SDS011;27696;42.704;23.304;2022-07-29T05:57:20;13.13;;;8.15;;
42006;SDS011;27696;42.704;23.304;2022-07-29T05:59:48;12.15;;;8.45;;
42006;SDS011;27696;42.704;23.304;2022-07-29T06:02:14;11.95;;;8.57;;
42006;SDS011;27696;42.704;23.304;2022-07-29T06:04:40;22.05;;;19.80;;
42006;SDS011;27696;42.704;23.304;2022-07-29T06:07:06;9.25;;;8.35;;
42006;SDS011;27696;42.704;23.304;2022-07-29T06:09:32;9.73;;;8.52;;
42006;SDS011;27696;42.704;23.304;2022-07-29T06:11:58;10.48;;;8.40;;
42006;SDS011;27696;42.704;23.304;2022-07-29T06:14:24;9.45;;;7.68;;
42006;SDS011;27696;42.704;23.304;2022-07-29T06:16:50;8.85;;;7.93;;
42006;SDS011;27696;42.704;23.304;2022-07-29T06:19:15;10.35;;;8.55;;
42006;SDS011;27696;42.704;23.304;2022-07-29T06:21:44;11.35;;;7.57;;
42006;SDS011;27696;42.704;23.304;2022-07-29T06:24:12;10.60;;;7.95;;
42006;SDS011;27696;42.704;23.304;2022-07-29T06:26:39;14.30;;;8.20;;
42006;SDS011;27696;42.704;23.304;2022-07-29T06:29:05;20.33;;;8.38;;
42006;SDS011;27696;42.704;23.304;2022-07-29T06:31:31;24.13;;;8.18;;
42006;SDS011;27696;42.704;23.304;2022-07-29T06:33:57;13.90;;;6.43;;
42006;SDS011;27696;42.704;23.304;2022-07-29T06:36:22;9.85;;;6.45;;
42006;SDS011;27696;42.704;23.304;2022-07-29T06:38:48;8.40;;;6.70;;
42006;SDS011;27696;42.704;23.304;2022-07-29T06:41:13;7.53;;;6.22;;
42006;SDS011;27696;42.704;23.304;2022-07-29T06:43:41;7.30;;;6.32;;
42006;SDS011;27696;42.704;23.304;2022-07-29T06:46:09;9.52;;;6.07;;
42006;SDS011;27696;42.704;23.304;2022-07-29T06:48:36;14.30;;;6.47;;
42006;SDS011;27696;42.704;23.304;2022-07-29T06:51:02;9.77;;;6.40;;
42006;SDS011;27696;42.704;23.304;2022-07-29T06:53:29;10.02;;;6.40;;
42006;SDS011;27696;42.704;23.304;2022-07-29T06:55:55;9.02;;;6.63;;
42006;SDS011;27696;42.704;23.304;2022-07-29T06:58:21;9.65;;;6.00;;
42006;SDS011;27696;42.704;23.304;2022-07-29T07:00:47;7.15;;;6.45;;
42006;SDS011;27696;42.704;23.304;2022-07-29T07:03:13;10.93;;;5.97;;
42006;SDS011;27696;42.704;23.304;2022-07-29T07:05:39;9.45;;;5.78;;
42006;SDS011;27696;42.704;23.304;2022-07-29T07:08:04;9.85;;;5.95;;
42006;SDS011;27696;42.704;23.304;2022-07-29T07:10:30;7.15;;;5.65;;
42006;SDS011;27696;42.704;23.304;2022-07-29T07:12:56;10.70;;;5.50;;
42006;SDS011;27696;42.704;23.304;2022-07-29T07:15:21;8.88;;;5.53;;
42006;SDS011;27696;42.704;23.304;2022-07-29T07:17:47;13.93;;;6.00;;
42006;SDS011;27696;42.704;23.304;2022-07-29T07:20:14;7.35;;;5.13;;
42006;SDS011;27696;42.704;23.304;2022-07-29T07:22:39;6.03;;;5.25;;
42006;SDS011;27696;42.704;23.304;2022-07-29T07:25:05;10.13;;;6.05;;
42006;SDS011;27696;42.704;23.304;2022-07-29T07:27:31;9.27;;;5.40;;
42006;SDS011;27696;42.704;23.304;2022-07-29T07:29:57;6.45;;;5.28;;
42006;SDS011;27696;42.704;23.304;2022-07-29T07:32:22;5.70;;;5.20;;
42006;SDS011;27696;42.704;23.304;2022-07-29T07:34:47;6.90;;;6.30;;
42006;SDS011;27696;42.704;23.304;2022-07-29T07:37:13;12.10;;;5.28;;
42006;SDS011;27696;42.704;23.304;2022-07-29T07:39:39;6.78;;;5.97;;
42006;SDS011;27696;42.704;23.304;2022-07-29T07:42:05;6.43;;;5.35;;
42006;SDS011;27696;42.704;23.304;2022-07-29T07:44:32;6.68;;;5.72;;
42006;SDS011;27696;42.704;23.304;2022-07-29T07:46:57;9.98;;;5.05;;
42006;SDS011;27696;42.704;23.304;2022-07-29T07:49:23;5.55;;;4.35;;
42006;SDS011;27696;42.704;23.304;2022-07-29T07:51:49;7.40;;;4.95;;
42006;SDS011;27696;42.704;23.304;2022-07-29T07:54:14;7.28;;;4.80;;
42006;SDS011;27696;42.704;23.304;2022-07-29T07:56:40;6.53;;;5.85;;
42006;SDS011;27696;42.704;23.304;2022-07-29T07:59:05;7.28;;;5.70;;
42006;SDS011;27696;42.704;23.304;2022-07-29T08:01:31;8.82;;;5.30;;
42006;SDS011;27696;42.704;23.304;2022-07-29T08:03:56;11.05;;;4.70;;
42006;SDS011;27696;42.704;23.304;2022-07-29T08:06:22;8.73;;;5.10;;
42006;SDS011;27696;42.704;23.304;2022-07-29T08:08:49;8.70;;;5.35;;
42006;SDS011;27696;42.704;23.304;2022-07-29T08:11:15;8.82;;;5.13;;
42006;SDS011;27696;42.704;23.304;2022-07-29T08:13:41;9.95;;;6.10;;
42006;SDS011;27696;42.704;23.304;2022-07-29T08:16:08;11.27;;;4.90;;
42006;SDS011;27696;42.704;23.304;2022-07-29T08:18:37;6.32;;;4.72;;
42006;SDS011;27696;42.704;23.304;2022-07-29T08:21:04;5.80;;;4.40;;
42006;SDS011;27696;42.704;23.304;2022-07-29T08:23:29;5.47;;;4.40;;
42006;SDS011;27696;42.704;23.304;2022-07-29T08:26:09;7.75;;;4.70;;
42006;SDS011;27696;42.704;23.304;2022-07-29T08:28:39;6.43;;;4.22;;
42006;SDS011;27696;42.704;23.304;2022-07-29T08:31:06;6.47;;;4.45;;
42006;SDS011;27696;42.704;23.304;2022-07-29T08:33:32;7.05;;;4.15;;
42006;SDS011;27696;42.704;23.304;2022-07-29T08:35:58;5.97;;;4.22;;
42006;SDS011;27696;42.704;23.304;2022-07-29T08:38:24;7.03;;;4.00;;
42006;SDS011;27696;42.704;23.304;2022-07-29T08:40:51;6.10;;;3.97;;
42006;SDS011;27696;42.704;23.304;2022-07-29T08:43:17;4.63;;;3.80;;
42006;SDS011;27696;42.704;23.304;2022-07-29T08:45:44;5.53;;;3.85;;
42006;SDS011;27696;42.704;23.304;2022-07-29T08:48:15;5.53;;;3.95;;
42006;SDS011;27696;42.704;23.304;2022-07-29T08:50:43;8.88;;;3.63;;
42006;SDS011;27696;42.704;23.304;2022-07-29T08:53:15;6.13;;;4.35;;
42006;SDS011;27696;42.704;23.304;2022-07-29T08:55:42;4.57;;;4.20;;
42006;SDS011;27696;42.704;23.304;2022-07-29T08:58:09;4.10;;;3.70;;
42006;SDS011;27696;42.704;23.304;2022-07-29T09:00:36;7.00;;;3.92;;
42006;SDS011;27696;42.704;23.304;2022-07-29T09:03:05;4.68;;;3.50;;
42006;SDS011;27696;42.704;23.304;2022-07-29T09:05:33;4.55;;;3.88;;
42006;SDS011;27696;42.704;23.304;2022-07-29T09:07:59;7.75;;;4.18;;
42006;SDS011;27696;42.704;23.304;2022-07-29T09:10:25;4.03;;;3.60;;
42006;SDS011;27696;42.704;23.304;2022-07-29T09:12:51;5.68;;;4.43;;
42006;SDS011;27696;42.704;23.304;2022-07-29T09:15:17;6.55;;;3.75;;
42006;SDS011;27696;42.704;23.304;2022-07-29T09:17:44;5.53;;;4.82;;
42006;SDS011;27696;42.704;23.304;2022-07-29T09:20:12;5.78;;;4.18;;
42006;SDS011;27696;42.704;23.304;2022-07-29T09:22:39;3.75;;;3.03;;
42006;SDS011;27696;42.704;23.304;2022-07-29T09:25:05;6.13;;;3.70;;
42006;SDS011;27696;42.704;23.304;2022-07-29T09:27:31;5.47;;;3.88;;
42006;SDS011;27696;42.704;23.304;2022-07-29T09:29:59;4.80;;;4.38;;
42006;SDS011;27696;42.704;23.304;2022-07-29T09:32:25;4.30;;;3.90;;
42006;SDS011;27696;42.704;23.304;2022-07-29T09:34:57;5.43;;;3.63;;
42006;SDS011;27696;42.704;23.304;2022-07-29T09:37:47;6.82;;;3.15;;
42006;SDS011;27696;42.704;23.304;2022-07-29T09:40:17;6.32;;;3.58;;
42006;SDS011;27696;42.704;23.304;2022-07-29T09:42:45;4.60;;;3.20;;
42006;SDS011;27696;42.704;23.304;2022-07-29T09:45:11;3.67;;;3.33;;
42006;SDS011;27696;42.704;23.304;2022-07-29T09:47:50;4.00;;;3.50;;
42006;SDS011;27696;42.704;23.304;2022-07-29T09:50:16;4.35;;;3.13;;
42006;SDS011;27696;42.704;23.304;2022-07-29T09:52:48;7.10;;;3.92;;
42006;SDS011;27696;42.704;23.304;2022-07-29T09:55:15;10.10;;;3.83;;
42006;SDS011;27696;42.704;23.304;2022-07-29T09:57:41;4.70;;;4.00;;
42006;SDS011;27696;42.704;23.304;2022-07-29T10:00:11;4.70;;;3.58;;
42006;SDS011;27696;42.704;23.304;2022-07-29T10:02:38;5.95;;;4.03;;
42006;SDS011;27696;42.704;23.304;2022-07-29T10:07:46;3.70;;;3.40;;
42006;SDS011;27696;42.704;23.304;2022-07-29T10:10:23;6.30;;;3.60;;
42006;SDS011;27696;42.704;23.304;2022-07-29T10:12:55;4.95;;;3.90;;
42006;SDS011;27696;42.704;23.304;2022-07-29T10:15:26;7.20;;;3.42;;
42006;SDS011;27696;42.704;23.304;2022-07-29T10:17:55;5.68;;;3.47;;
42006;SDS011;27696;42.704;23.304;2022-07-29T10:20:22;6.82;;;3.20;;
42006;SDS011;27696;42.704;23.304;2022-07-29T10:22:48;5.05;;;3.67;;
42006;SDS011;27696;42.704;23.304;2022-07-29T10:25:15;6.35;;;3.33;;
42006;SDS011;27696;42.704;23.304;2022-07-29T10:27:41;3.30;;;3.00;;
42006;SDS011;27696;42.704;23.304;2022-07-29T10:30:08;3.80;;;3.10;;
42006;SDS011;27696;42.704;23.304;2022-07-29T10:43:25;3.88;;;3.45;;
42006;SDS011;27696;42.704;23.304;2022-07-29T10:45:57;3.78;;;3.47;;
42006;SDS011;27696;42.704;23.304;2022-07-29T10:48:25;5.60;;;3.50;;
42006;SDS011;27696;42.704;23.304;2022-07-29T10:50:57;4.40;;;3.08;;
42006;SDS011;27696;42.704;23.304;2022-07-29T10:53:45;5.00;;;2.95;;
42006;SDS011;27696;42.704;23.304;2022-07-29T10:56:28;3.90;;;3.50;;
42006;SDS011;27696;42.704;23.304;2022-07-29T11:01:42;5.70;;;3.60;;
42006;SDS011;27696;42.704;23.304;2022-07-29T11:04:08;9.90;;;3.50;;
42006;SDS011;27696;42.704;23.304;2022-07-29T11:09:27;7.20;;;3.42;;
42006;SDS011;27696;42.704;23.304;2022-07-29T11:11:55;6.45;;;3.42;;
42006;SDS011;27696;42.704;23.304;2022-07-29T11:17:17;3.92;;;3.60;;
42006;SDS011;27696;42.704;23.304;2022-07-29T11:19:42;4.03;;;3.13;;
42006;SDS011;27696;42.704;23.304;2022-07-29T11:22:09;4.00;;;3.33;;
42006;SDS011;27696;42.704;23.304;2022-07-29T11:24:36;5.20;;;3.53;;
42006;SDS011;27696;42.704;23.304;2022-07-29T11:27:12;7.28;;;4.10;;
42006;SDS011;27696;42.704;23.304;2022-07-29T11:29:49;4.03;;;3.58;;
42006;SDS011;27696;42.704;23.304;2022-07-29T11:32:17;5.47;;;3.55;;
42006;SDS011;27696;42.704;23.304;2022-07-29T11:34:47;9.65;;;4.00;;
42006;SDS011;27696;42.704;23.304;2022-07-29T11:37:17;7.80;;;3.90;;
42006;SDS011;27696;42.704;23.304;2022-07-29T11:50:15;4.00;;;3.60;;
42006;SDS011;27696;42.704;23.304;2022-07-29T11:52:44;3.95;;;3.53;;
42006;SDS011;27696;42.704;23.304;2022-07-29T11:57:49;4.40;;;3.83;;
42006;SDS011;27696;42.704;23.304;2022-07-29T12:03:04;12.82;;;4.40;;
42006;SDS011;27696;42.704;23.304;2022-07-29T12:05:32;5.03;;;4.38;;
42006;SDS011;27696;42.704;23.304;2022-07-29T12:08:04;6.43;;;3.90;;
42006;SDS011;27696;42.704;23.304;2022-07-29T12:10:47;5.75;;;4.40;;
42006;SDS011;27696;42.704;23.304;2022-07-29T12:13:17;6.10;;;4.10;;
42006;SDS011;27696;42.704;23.304;2022-07-29T12:15:54;4.40;;;3.80;;
42006;SDS011;27696;42.704;23.304;2022-07-29T12:18:21;5.72;;;4.55;;
42006;SDS011;27696;42.704;23.304;2022-07-29T12:20:47;4.53;;;4.13;;
42006;SDS011;27696;42.704;23.304;2022-07-29T12:23:13;4.80;;;4.40;;
42006;SDS011;27696;42.704;23.304;2022-07-29T12:25:41;7.68;;;4.35;;
42006;SDS011;27696;42.704;23.304;2022-07-29T12:28:11;8.02;;;4.05;;
42006;SDS011;27696;42.704;23.304;2022-07-29T12:30:44;8.07;;;4.10;;
42006;SDS011;27696;42.704;23.304;2022-07-29T12:33:21;11.63;;;3.90;;
42006;SDS011;27696;42.704;23.304;2022-07-29T12:35:56;9.52;;;3.80;;
42006;SDS011;27696;42.704;23.304;2022-07-29T12:38:23;6.22;;;4.18;;
42006;SDS011;27696;42.704;23.304;2022-07-29T12:40:49;4.65;;;4.05;;
42006;SDS011;27696;42.704;23.304;2022-07-29T12:45:46;7.63;;;4.63;;
42006;SDS011;27696;42.704;23.304;2022-07-29T12:48:13;5.53;;;4.18;;
42006;SDS011;27696;42.704;23.304;2022-07-29T12:50:58;5.90;;;4.40;;
42006;SDS011;27696;42.704;23.304;2022-07-29T12:53:25;5.00;;;4.20;;
42006;SDS011;27696;42.704;23.304;2022-07-29T12:55:51;4.55;;;4.15;;
42006;SDS011;27696;42.704;23.304;2022-07-29T13:01:04;7.45;;;4.32;;
42006;SDS011;27696;42.704;23.304;2022-07-29T13:09:11;10.43;;;4.57;;
42006;SDS011;27696;42.704;23.304;2022-07-29T13:11:42;6.13;;;4.50;;
42006;SDS011;27696;42.704;23.304;2022-07-29T13:14:13;10.88;;;4.82;;
42006;SDS011;27696;42.704;23.304;2022-07-29T13:20:05;6.00;;;4.30;;
42006;SDS011;27696;42.704;23.304;2022-07-29T13:22:18;5.25;;;4.75;;
42006;SDS011;27696;42.704;23.304;2022-07-29T13:27:31;6.68;;;4.30;;
42006;SDS011;27696;42.704;23.304;2022-07-29T13:29:59;7.50;;;4.45;;
42006;SDS011;27696;42.704;23.304;2022-07-29T13:32:26;5.13;;;4.68;;
42006;SDS011;27696;42.704;23.304;2022-07-29T13:34:53;5.53;;;4.88;;
42006;SDS011;27696;42.704;23.304;2022-07-29T13:37:23;6.28;;;4.82;;
42006;SDS011;27696;42.704;23.304;2022-07-29T13:39:51;5.45;;;4.50;;
42006;SDS011;27696;42.704;23.304;2022-07-29T13:42:17;5.53;;;4.60;;
42006;SDS011;27696;42.704;23.304;2022-07-29T13:44:43;6.63;;;3.92;;
42006;SDS011;27696;42.704;23.304;2022-07-29T13:47:08;5.18;;;4.72;;
42006;SDS011;27696;42.704;23.304;2022-07-29T13:49:34;5.68;;;4.22;;
42006;SDS011;27696;42.704;23.304;2022-07-29T13:52:00;7.00;;;4.63;;
42006;SDS011;27696;42.704;23.304;2022-07-29T13:54:25;7.00;;;4.10;;
42006;SDS011;27696;42.704;23.304;2022-07-29T13:56:51;5.78;;;4.63;;
42006;SDS011;27696;42.704;23.304;2022-07-29T13:59:17;6.60;;;4.43;;
42006;SDS011;27696;42.704;23.304;2022-07-29T14:01:42;10.50;;;4.43;;
42006;SDS011;27696;42.704;23.304;2022-07-29T14:04:08;4.78;;;4.40;;
42006;SDS011;27696;42.704;23.304;2022-07-29T14:06:34;7.55;;;4.30;;
42006;SDS011;27696;42.704;23.304;2022-07-29T14:09:00;6.88;;;4.07;;
42006;SDS011;27696;42.704;23.304;2022-07-29T14:11:26;8.18;;;4.22;;
42006;SDS011;27696;42.704;23.304;2022-07-29T14:13:51;4.55;;;4.15;;
42006;SDS011;27696;42.704;23.304;2022-07-29T14:16:17;4.55;;;4.03;;
42006;SDS011;27696;42.704;23.304;2022-07-29T14:18:42;6.20;;;4.55;;
42006;SDS011;27696;42.704;23.304;2022-07-29T14:21:08;5.22;;;4.32;;
42006;SDS011;27696;42.704;23.304;2022-07-29T14:23:33;5.78;;;4.38;;
42006;SDS011;27696;42.704;23.304;2022-07-29T14:25:59;4.47;;;4.05;;
42006;SDS011;27696;42.704;23.304;2022-07-29T14:28:24;4.43;;;4.03;;
42006;SDS011;27696;42.704;23.304;2022-07-29T14:30:50;6.22;;;4.50;;
42006;SDS011;27696;42.704;23.304;2022-07-29T14:33:15;4.88;;;4.30;;
42006;SDS011;27696;42.704;23.304;2022-07-29T14:35:41;5.20;;;4.75;;
42006;SDS011;27696;42.704;23.304;2022-07-29T14:38:06;7.47;;;4.40;;
42006;SDS011;27696;42.704;23.304;2022-07-29T14:40:32;8.40;;;4.63;;
42006;SDS011;27696;42.704;23.304;2022-07-29T14:42:57;5.60;;;4.97;;
42006;SDS011;27696;42.704;23.304;2022-07-29T14:45:23;6.68;;;4.50;;
42006;SDS011;27696;42.704;23.304;2022-07-29T14:47:48;7.68;;;4.53;;
42006;SDS011;27696;42.704;23.304;2022-07-29T14:50:15;5.40;;;4.90;;
42006;SDS011;27696;42.704;23.304;2022-07-29T14:52:41;10.55;;;4.30;;
42006;SDS011;27696;42.704;23.304;2022-07-29T14:55:07;6.85;;;4.30;;
42006;SDS011;27696;42.704;23.304;2022-07-29T14:57:33;4.20;;;3.88;;
42006;SDS011;27696;42.704;23.304;2022-07-29T14:59:58;5.97;;;4.30;;
42006;SDS011;27696;42.704;23.304;2022-07-29T15:02:23;5.60;;;3.95;;
42006;SDS011;27696;42.704;23.304;2022-07-29T15:04:49;5.60;;;4.05;;
42006;SDS011;27696;42.704;23.304;2022-07-29T15:07:14;7.07;;;4.35;;
42006;SDS011;27696;42.704;23.304;2022-07-29T15:09:41;5.80;;;4.53;;
42006;SDS011;27696;42.704;23.304;2022-07-29T15:12:06;5.43;;;4.25;;
42006;SDS011;27696;42.704;23.304;2022-07-29T15:14:32;6.00;;;4.55;;
42006;SDS011;27696;42.704;23.304;2022-07-29T15:16:58;4.90;;;4.22;;
42006;SDS011;27696;42.704;23.304;2022-07-29T15:19:24;4.65;;;4.03;;
42006;SDS011;27696;42.704;23.304;2022-07-29T15:21:49;4.95;;;4.55;;
42006;SDS011;27696;42.704;23.304;2022-07-29T15:24:15;6.43;;;4.95;;
42006;SDS011;27696;42.704;23.304;2022-07-29T15:26:41;6.15;;;4.65;;
42006;SDS011;27696;42.704;23.304;2022-07-29T15:29:07;5.07;;;4.63;;
42006;SDS011;27696;42.704;23.304;2022-07-29T15:31:32;5.45;;;4.95;;
42006;SDS011;27696;42.704;23.304;2022-07-29T15:33:58;7.70;;;4.82;;